createdAt,value
2019-05-10T00:00:03.769Z,12.62
2019-05-10T00:02:30.373Z,12.62
2019-05-10T00:04:56.946Z,12.61
2019-05-10T00:07:23.548Z,12.61
2019-05-10T00:09:50.113Z,12.61
2019-05-10T00:12:16.711Z,12.59
2019-05-10T00:14:43.280Z,12.59
2019-05-10T00:17:09.885Z,12.58
2019-05-10T00:19:36.474Z,12.57
2019-05-10T00:22:03.086Z,12.56
2019-05-10T00:24:29.665Z,12.56
2019-05-10T00:26:56.268Z,12.53
2019-05-10T00:29:22.845Z,12.49
2019-05-10T00:31:49.434Z,12.47
2019-05-10T00:34:16.011Z,12.43
2019-05-10T00:36:42.620Z,12.40
2019-05-10T00:39:09.198Z,12.38
2019-05-10T00:41:35.793Z,12.33
2019-05-10T00:44:02.365Z,12.28
2019-05-10T00:46:28.959Z,12.25
2019-05-10T00:48:55.543Z,12.22
2019-05-10T00:51:22.158Z,12.22
2019-05-10T00:53:48.740Z,12.19
2019-05-10T00:56:15.340Z,12.20
2019-05-10T00:58:41.916Z,12.19
2019-05-10T01:01:08.546Z,12.17
2019-05-10T01:03:35.112Z,12.17
2019-05-10T01:06:01.743Z,12.17
2019-05-10T01:08:28.371Z,12.16
2019-05-10T01:10:54.956Z,12.15
2019-05-10T01:13:21.562Z,12.14
2019-05-10T01:15:48.179Z,12.13
2019-05-10T01:18:14.773Z,12.11
2019-05-10T01:20:41.342Z,12.08
2019-05-10T01:23:07.961Z,12.04
2019-05-10T01:25:35.912Z,12.02
2019-05-10T01:28:02.756Z,12.01
2019-05-10T01:30:29.385Z,11.97
2019-05-10T01:32:55.982Z,11.94
2019-05-10T01:35:22.623Z,11.93
2019-05-10T01:37:49.239Z,11.93
2019-05-10T01:40:15.816Z,11.93
2019-05-10T01:42:42.433Z,11.93
2019-05-10T01:45:09.018Z,11.94
2019-05-10T01:47:35.618Z,11.94
2019-05-10T01:50:02.193Z,11.94
2019-05-10T01:52:28.806Z,11.96
2019-05-10T01:54:55.376Z,11.97
2019-05-10T01:57:21.978Z,11.99
2019-05-10T01:59:48.591Z,12.00
2019-05-10T02:02:15.205Z,12.03
2019-05-10T02:04:41.804Z,12.05
2019-05-10T02:07:08.415Z,12.08
2019-05-10T02:09:34.984Z,12.11
2019-05-10T02:12:01.596Z,12.14
2019-05-10T02:14:28.163Z,12.16
2019-05-10T02:16:54.783Z,12.19
2019-05-10T02:19:21.359Z,12.21
2019-05-10T02:21:47.992Z,12.21
2019-05-10T02:24:14.547Z,12.24
2019-05-10T02:26:41.154Z,12.26
2019-05-10T02:29:07.764Z,12.28
2019-05-10T02:31:34.411Z,12.30
2019-05-10T02:34:00.970Z,12.33
2019-05-10T02:36:27.589Z,12.35
2019-05-10T02:38:54.191Z,12.38
2019-05-10T02:41:20.816Z,12.39
2019-05-10T02:43:47.433Z,12.42
2019-05-10T02:46:13.996Z,12.44
2019-05-10T02:48:40.585Z,12.45
2019-05-10T02:51:07.156Z,12.47
2019-05-10T02:53:33.784Z,12.47
2019-05-10T02:56:00.359Z,12.48
2019-05-10T02:58:26.957Z,12.45
2019-05-10T03:00:53.530Z,12.45
2019-05-10T03:03:20.128Z,12.43
2019-05-10T03:05:48.552Z,12.41
2019-05-10T03:08:15.052Z,12.39
2019-05-10T03:10:41.638Z,12.39
2019-05-10T03:13:08.232Z,12.39
2019-05-10T03:15:34.817Z,12.42
2019-05-10T03:18:01.418Z,12.43
2019-05-10T03:20:27.976Z,12.44
2019-05-10T03:22:54.660Z,12.46
2019-05-10T03:25:21.400Z,12.47
2019-05-10T03:27:47.997Z,12.48
2019-05-10T03:30:14.576Z,12.48
2019-05-10T03:32:41.187Z,12.46
2019-05-10T03:35:07.867Z,12.48
2019-05-10T03:37:34.606Z,12.47
2019-05-10T03:40:01.189Z,12.48
2019-05-10T03:42:27.791Z,12.50
2019-05-10T03:44:54.388Z,12.50
2019-05-10T03:47:20.984Z,12.50
2019-05-10T03:49:47.643Z,12.50
2019-05-10T03:52:14.249Z,12.49
2019-05-10T03:54:40.823Z,12.49
2019-05-10T03:57:13.820Z,12.49
2019-05-10T03:59:35.737Z,12.49
2019-05-10T04:02:02.319Z,12.47
2019-05-10T04:04:28.898Z,12.50
2019-05-10T04:06:55.479Z,12.53
2019-05-10T04:09:22.085Z,12.54
2019-05-10T04:11:48.654Z,12.57
2019-05-10T04:14:15.277Z,12.61
2019-05-10T04:16:41.944Z,12.64
2019-05-10T04:19:08.523Z,12.67
2019-05-10T04:21:35.122Z,12.70
2019-05-10T04:24:01.792Z,12.73
2019-05-10T04:26:28.365Z,12.78
2019-05-10T04:28:54.984Z,12.80
2019-05-10T04:31:21.559Z,12.84
2019-05-10T04:33:48.215Z,12.86
2019-05-10T04:36:14.783Z,12.87
2019-05-10T04:38:41.385Z,12.88
2019-05-10T04:41:07.960Z,12.91
2019-05-10T04:43:34.549Z,12.96
2019-05-10T04:46:01.129Z,12.98
2019-05-10T04:48:27.805Z,13.04
2019-05-10T04:50:54.377Z,13.08
2019-05-10T04:53:20.985Z,13.13
2019-05-10T04:55:47.563Z,13.17
2019-05-10T04:58:14.157Z,13.21
2019-05-10T05:00:40.741Z,13.26
2019-05-10T05:03:07.355Z,13.31
2019-05-10T05:05:34.062Z,13.36
2019-05-10T05:08:00.700Z,13.40
2019-05-10T05:10:27.283Z,13.45
2019-05-10T05:12:54.156Z,13.49
2019-05-10T05:15:20.734Z,13.51
2019-05-10T05:17:47.327Z,13.54
2019-05-10T05:20:13.908Z,13.57
2019-05-10T05:22:40.484Z,13.61
2019-05-10T05:25:07.099Z,13.63
2019-05-10T05:27:34.010Z,13.68
2019-05-10T05:30:00.608Z,13.71
2019-05-10T05:32:27.181Z,13.75
2019-05-10T05:34:53.776Z,13.80
2019-05-10T05:37:20.355Z,13.84
2019-05-10T05:39:46.975Z,13.89
2019-05-10T05:42:13.638Z,13.96
2019-05-10T05:44:40.314Z,14.00
2019-05-10T05:47:06.886Z,14.07
2019-05-10T05:49:33.474Z,14.13
2019-05-10T05:52:02.327Z,14.21
2019-05-10T05:54:28.966Z,14.28
2019-05-10T05:56:55.542Z,14.35
2019-05-10T05:59:23.809Z,14.38
2019-05-10T06:01:50.458Z,14.47
2019-05-10T06:04:17.070Z,14.52
2019-05-10T06:06:43.639Z,14.58
2019-05-10T06:09:10.248Z,14.62
2019-05-10T06:11:37.840Z,14.70
2019-05-10T06:14:10.917Z,14.77
2019-05-10T06:16:32.930Z,14.86
2019-05-10T06:18:59.529Z,14.95
2019-05-10T06:21:26.808Z,15.03
2019-05-10T06:23:53.601Z,15.12
2019-05-10T06:26:26.503Z,15.17
2019-05-10T06:28:59.636Z,15.22
2019-05-10T06:31:16.807Z,15.29
2019-05-10T06:33:44.901Z,15.35
2019-05-10T06:36:11.678Z,15.41
2019-05-10T06:38:38.293Z,15.43
2019-05-10T06:41:09.990Z,15.50
2019-05-10T06:43:33.194Z,15.58
2019-05-10T06:45:59.782Z,15.66
2019-05-10T06:48:29.518Z,15.72
2019-05-10T06:50:54.693Z,15.77
2019-05-10T06:53:23.245Z,15.81
2019-05-10T06:55:49.602Z,15.84
2019-05-10T06:58:16.178Z,15.88
2019-05-10T07:00:44.695Z,15.95
2019-05-10T07:03:11.103Z,16.02
2019-05-10T07:05:37.705Z,16.11
2019-05-10T07:08:14.005Z,16.14
2019-05-10T07:10:33.787Z,16.12
2019-05-10T07:13:03.756Z,16.08
2019-05-10T07:15:29.179Z,16.09
2019-05-10T07:17:55.760Z,16.11
2019-05-10T07:20:23.722Z,16.17
2019-05-10T07:22:50.678Z,16.26
2019-05-10T07:25:17.286Z,16.37
2019-05-10T07:27:44.239Z,16.43
2019-05-10T07:30:11.065Z,16.44
2019-05-10T07:32:37.656Z,16.38
2019-05-10T07:35:04.339Z,16.36
2019-05-10T07:37:30.902Z,16.36
2019-05-10T07:39:57.532Z,16.39
2019-05-10T07:42:24.111Z,16.44
2019-05-10T07:44:50.721Z,16.51
2019-05-10T07:47:17.297Z,16.59
2019-05-10T07:49:43.914Z,16.63
2019-05-10T07:52:10.481Z,16.64
2019-05-10T07:54:44.611Z,16.69
2019-05-10T07:57:05.389Z,16.71
2019-05-10T07:59:41.999Z,16.73
2019-05-10T08:02:06.140Z,16.77
2019-05-10T08:04:33.376Z,16.81
2019-05-10T08:06:59.569Z,16.88
2019-05-10T08:09:25.298Z,16.99
2019-05-10T08:11:53.890Z,17.16
2019-05-10T08:14:20.178Z,17.34
2019-05-10T08:16:49.779Z,17.47
2019-05-10T08:19:15.065Z,17.59
2019-05-10T08:21:42.002Z,17.67
2019-05-10T08:24:13.720Z,17.71
2019-05-10T08:26:37.020Z,17.79
2019-05-10T08:29:07.821Z,17.88
2019-05-10T08:31:40.680Z,18.00
2019-05-10T08:34:02.221Z,18.11
2019-05-10T08:36:28.534Z,18.23
2019-05-10T08:39:03.458Z,18.40
2019-05-10T08:41:23.474Z,18.60
2019-05-10T08:43:52.390Z,18.78
2019-05-10T08:46:19.330Z,18.93
2019-05-10T08:48:50.582Z,19.12
2019-05-10T08:51:14.983Z,19.30
2019-05-10T08:53:42.291Z,19.47
2019-05-10T08:56:13.672Z,19.68
2019-05-10T08:58:37.497Z,19.88
2019-05-10T09:01:16.276Z,20.07
2019-05-10T09:03:32.438Z,20.24
2019-05-10T09:06:05.311Z,20.39
2019-05-10T09:08:31.353Z,20.48
2019-05-10T09:10:55.672Z,20.51
2019-05-10T09:13:22.896Z,20.49
2019-05-10T09:15:54.330Z,20.49
2019-05-10T09:18:18.047Z,20.49
2019-05-10T09:20:44.635Z,20.53
2019-05-10T09:23:17.886Z,20.61
2019-05-10T09:25:39.561Z,20.71
2019-05-10T09:28:11.674Z,20.84
2019-05-10T09:30:35.606Z,21.03
2019-05-10T09:33:08.768Z,21.17
2019-05-10T09:35:32.852Z,21.31
2019-05-10T09:37:59.046Z,21.51
2019-05-10T09:40:26.778Z,21.61
2019-05-10T09:42:53.350Z,21.66
2019-05-10T09:45:24.106Z,21.77
2019-05-10T09:47:48.271Z,21.89
2019-05-10T09:50:14.854Z,22.00
2019-05-10T09:52:41.702Z,22.19
2019-05-10T09:55:12.410Z,22.46
2019-05-10T09:57:38.054Z,22.73
2019-05-10T10:00:07.235Z,22.98
2019-05-10T10:02:33.985Z,23.21
2019-05-10T10:05:00.675Z,23.37
2019-05-10T10:07:30.692Z,23.45
2019-05-10T10:09:57.038Z,23.96
2019-05-10T10:12:23.769Z,24.72
2019-05-10T10:14:50.336Z,25.37
2019-05-10T10:17:18.347Z,25.89
2019-05-10T10:19:47.811Z,26.27
2019-05-10T10:22:13.569Z,26.58
2019-05-10T10:24:41.097Z,27.14
2019-05-10T10:27:07.928Z,27.77
2019-05-10T10:29:38.269Z,28.32
2019-05-10T10:32:02.845Z,28.63
2019-05-10T10:34:32.693Z,28.73
2019-05-10T10:36:58.134Z,28.72
2019-05-10T10:39:24.806Z,28.63
2019-05-10T10:41:52.216Z,28.61
2019-05-10T10:44:18.973Z,28.97
2019-05-10T10:46:47.775Z,29.45
2019-05-10T10:49:14.611Z,30.04
2019-05-10T10:51:41.372Z,30.67
2019-05-10T10:54:07.950Z,31.27
2019-05-10T10:56:34.564Z,31.93
2019-05-10T10:59:01.144Z,32.56
2019-05-10T11:01:33.182Z,33.17
2019-05-10T11:03:56.091Z,33.79
2019-05-10T11:06:22.883Z,34.45
2019-05-10T11:08:51.707Z,35.09
2019-05-10T11:11:17.808Z,35.66
2019-05-10T11:13:46.286Z,36.26
2019-05-10T11:16:15.670Z,36.57
2019-05-10T11:18:41.828Z,36.85
2019-05-10T11:21:11.078Z,37.30
2019-05-10T11:23:39.050Z,37.76
2019-05-10T11:26:05.321Z,38.24
2019-05-10T11:28:38.563Z,38.76
2019-05-10T11:31:01.076Z,39.29
2019-05-10T11:33:30.831Z,39.85
2019-05-10T11:35:57.671Z,40.45
2019-05-10T11:38:24.402Z,41.05
2019-05-10T11:40:50.974Z,41.54
2019-05-10T11:43:23.897Z,41.98
2019-05-10T11:45:45.899Z,42.44
2019-05-10T11:48:12.530Z,42.89
2019-05-10T11:50:41.125Z,43.41
2019-05-10T11:53:13.299Z,43.99
2019-05-10T11:59:04.539Z,45.24
2019-05-10T12:00:34.323Z,45.02
2019-05-10T12:03:07.686Z,44.92
2019-05-10T12:05:31.793Z,45.21
2019-05-10T12:07:57.549Z,45.72
2019-05-10T12:10:25.564Z,45.95
2019-05-10T12:13:06.194Z,45.34
2019-05-10T12:15:25.293Z,44.41
2019-05-10T12:17:57.774Z,44.43
2019-05-10T12:20:17.571Z,44.24
2019-05-10T12:22:47.366Z,43.22
2019-05-10T12:25:35.933Z,42.62
2019-05-10T12:25:59.517Z,44.61
2019-05-10T12:27:47.844Z,41.82
2019-05-10T12:30:11.478Z,41.04
2019-05-10T12:32:53.666Z,41.13
2019-05-10T12:35:05.734Z,40.09
2019-05-10T12:37:32.332Z,38.87
2019-05-10T12:40:08.535Z,37.63
2019-05-10T12:42:27.259Z,36.47
2019-05-10T12:44:55.922Z,35.38
2019-05-10T12:47:22.154Z,34.45
2019-05-10T12:49:53.895Z,33.97
2019-05-10T12:52:17.148Z,33.23
2019-05-10T12:54:43.713Z,32.53
2019-05-10T12:57:10.347Z,31.88
2019-05-10T12:59:36.909Z,31.22
2019-05-10T13:02:04.622Z,30.62
2019-05-10T13:04:40.070Z,30.06
2019-05-10T13:07:00.151Z,29.58
2019-05-10T13:09:38.105Z,29.07
2019-05-10T13:12:03.134Z,28.58
2019-05-10T13:14:23.370Z,28.10
2019-05-10T13:16:49.945Z,27.61
2019-05-10T13:19:19.966Z,27.01
2019-05-10T13:21:44.848Z,26.37
2019-05-10T13:24:11.516Z,25.66
2019-05-10T13:26:38.101Z,24.99
2019-05-10T13:29:08.164Z,24.38
2019-05-10T13:31:42.105Z,23.78
2019-05-10T13:34:01.355Z,23.22
2019-05-10T13:36:30.634Z,22.75
2019-05-10T13:38:56.259Z,22.37
2019-05-10T13:41:24.470Z,22.03
2019-05-10T13:43:51.165Z,21.72
2019-05-10T13:46:17.741Z,21.44
2019-05-10T13:48:44.351Z,21.23
2019-05-10T13:51:10.934Z,21.06
2019-05-10T13:53:37.549Z,20.92
2019-05-10T13:56:04.709Z,20.78
2019-05-10T13:58:31.329Z,20.62
2019-05-10T14:00:57.912Z,20.46
2019-05-10T14:03:24.517Z,20.28
2019-05-10T14:05:51.087Z,20.14
2019-05-10T14:08:17.683Z,20.02
2019-05-10T14:10:44.267Z,19.96
2019-05-10T14:13:10.875Z,19.91
2019-05-10T14:15:37.455Z,19.86
2019-05-10T14:18:04.065Z,19.83
2019-05-10T14:20:30.642Z,19.91
2019-05-10T14:22:58.906Z,20.00
2019-05-10T14:25:29.697Z,20.07
2019-05-10T14:27:53.877Z,20.13
2019-05-10T14:30:20.448Z,20.12
2019-05-10T14:32:47.068Z,20.07
2019-05-10T14:35:16.415Z,20.04
2019-05-10T14:37:41.964Z,20.04
2019-05-10T14:40:08.546Z,20.04
2019-05-10T14:42:35.161Z,20.05
2019-05-10T14:45:01.733Z,20.06
2019-05-10T14:47:28.309Z,20.06
2019-05-10T14:49:54.906Z,20.06
2019-05-10T14:52:22.696Z,20.04
2019-05-10T14:54:54.824Z,20.05
2019-05-10T14:57:17.790Z,20.01
2019-05-10T14:59:44.451Z,19.96
2019-05-10T15:02:17.047Z,19.89
2019-05-10T15:04:45.202Z,19.82
2019-05-10T15:07:08.530Z,19.74
2019-05-10T15:09:35.963Z,19.66
2019-05-10T15:12:02.534Z,19.58
2019-05-10T15:14:29.267Z,19.44
2019-05-10T15:16:55.852Z,19.32
2019-05-10T15:19:27.134Z,19.17
2019-05-10T15:21:51.786Z,19.02
2019-05-10T15:24:18.390Z,18.87
2019-05-10T15:26:46.140Z,18.72
2019-05-10T15:29:15.066Z,18.52
2019-05-10T15:31:41.264Z,18.31
2019-05-10T15:34:07.852Z,18.12
2019-05-10T15:36:34.433Z,17.96
2019-05-10T15:39:01.038Z,17.82
2019-05-10T15:41:27.605Z,17.70
2019-05-10T15:43:55.001Z,17.57
2019-05-10T15:46:23.386Z,17.45
2019-05-10T15:48:50.181Z,17.37
2019-05-10T15:51:18.435Z,17.31
2019-05-10T15:53:45.238Z,17.29
2019-05-10T15:56:11.817Z,17.31
2019-05-10T15:58:42.122Z,17.34
2019-05-10T16:01:06.718Z,17.40
2019-05-10T16:03:33.327Z,17.46
2019-05-10T16:06:01.116Z,17.54
2019-05-10T16:08:30.106Z,17.64
2019-05-10T16:10:56.272Z,17.73
2019-05-10T16:13:25.092Z,17.85
2019-05-10T16:15:56.908Z,17.93
2019-05-10T16:18:20.590Z,17.97
2019-05-10T16:20:48.045Z,17.95
2019-05-10T16:23:14.646Z,17.85
2019-05-10T16:25:47.641Z,17.73
2019-05-10T16:28:09.527Z,17.60
2019-05-10T16:30:36.662Z,17.48
2019-05-10T16:33:03.396Z,17.41
2019-05-10T16:35:38.333Z,17.37
2019-05-10T16:37:58.295Z,17.34
2019-05-10T16:40:24.926Z,17.31
2019-05-10T16:42:51.514Z,17.28
2019-05-10T16:45:18.108Z,17.27
2019-05-10T16:47:44.688Z,17.27
2019-05-10T16:50:11.305Z,17.28
2019-05-10T16:52:37.899Z,17.26
2019-05-10T16:55:05.418Z,17.25
2019-05-10T16:57:37.297Z,17.25
2019-05-10T17:00:02.186Z,17.21
2019-05-10T17:02:28.930Z,17.18
2019-05-10T17:04:55.550Z,17.14
2019-05-10T17:07:22.122Z,17.11
2019-05-10T17:09:49.584Z,17.06
2019-05-10T17:12:17.034Z,17.03
2019-05-10T17:14:43.648Z,16.99
2019-05-10T17:17:10.223Z,16.94
2019-05-10T17:19:36.840Z,16.86
2019-05-10T17:22:03.424Z,16.81
2019-05-10T17:24:30.027Z,16.77
2019-05-10T17:26:56.609Z,16.73
2019-05-10T17:29:23.239Z,16.70
2019-05-10T17:31:49.821Z,16.68
2019-05-10T17:34:27.637Z,16.65
2019-05-10T17:36:44.721Z,16.59
2019-05-10T17:39:11.337Z,16.53
2019-05-10T17:41:37.915Z,16.47
2019-05-10T17:44:04.540Z,16.38
2019-05-10T17:46:31.115Z,16.29
2019-05-10T17:48:57.698Z,16.19
2019-05-10T17:51:24.308Z,16.15
2019-05-10T17:53:54.935Z,16.09
2019-05-10T17:56:19.546Z,16.02
2019-05-10T17:58:46.115Z,15.95
2019-05-10T18:01:12.722Z,15.90
2019-05-10T18:03:39.302Z,15.84
2019-05-10T18:06:05.923Z,15.76
2019-05-10T18:08:32.494Z,15.69
2019-05-10T18:11:04.107Z,15.62
2019-05-10T18:13:27.506Z,15.55
2019-05-10T18:15:54.118Z,15.53
2019-05-10T18:18:20.688Z,15.50
2019-05-10T18:20:47.305Z,15.49
2019-05-10T18:23:20.471Z,15.49
2019-05-10T18:25:42.262Z,15.48
2019-05-10T18:28:08.842Z,15.45
2019-05-10T18:30:35.449Z,15.44
2019-05-10T18:33:06.658Z,15.44
2019-05-10T18:35:30.356Z,15.44
2019-05-10T18:37:59.485Z,15.42
2019-05-10T18:40:31.779Z,15.41
2019-05-10T18:42:57.970Z,15.39
2019-05-10T18:45:23.259Z,15.38
2019-05-10T18:47:50.200Z,15.36
2019-05-10T18:50:16.795Z,15.31
2019-05-10T18:52:43.378Z,15.27
2019-05-10T18:55:10.048Z,15.20
2019-05-10T18:57:36.620Z,15.16
2019-05-10T19:00:03.537Z,15.12
2019-05-10T19:02:30.341Z,15.07
2019-05-10T19:04:56.945Z,15.02
2019-05-10T19:07:23.575Z,14.98
2019-05-10T19:09:50.169Z,14.93
2019-05-10T19:12:18.573Z,14.88
2019-05-10T19:14:45.092Z,14.84
2019-05-10T19:17:11.690Z,14.82
2019-05-10T19:19:42.026Z,14.78
2019-05-10T19:22:08.825Z,14.74
2019-05-10T19:24:34.915Z,14.70
2019-05-10T19:27:07.085Z,14.67
2019-05-10T19:29:29.842Z,14.65
2019-05-10T19:31:56.451Z,14.60
2019-05-10T19:34:23.021Z,14.56
2019-05-10T19:36:49.777Z,14.52
2019-05-10T19:39:16.362Z,14.48
2019-05-10T19:41:42.977Z,14.43
2019-05-10T19:44:09.596Z,14.38
2019-05-10T19:46:39.171Z,14.33
2019-05-10T19:49:07.502Z,14.28
2019-05-10T19:51:33.122Z,14.25
2019-05-10T19:53:59.693Z,14.20
2019-05-10T19:56:30.114Z,14.17
2019-05-10T19:58:54.585Z,14.14
2019-05-10T20:01:21.198Z,14.11
2019-05-10T20:03:47.771Z,14.09
2019-05-10T20:06:14.412Z,14.08
2019-05-10T20:08:40.987Z,14.08
2019-05-10T20:11:07.597Z,14.10
2019-05-10T20:13:34.183Z,14.08
2019-05-10T20:16:01.551Z,14.07
2019-05-10T20:18:28.353Z,14.08
2019-05-10T20:20:54.977Z,14.09
2019-05-10T20:23:21.549Z,14.09
2019-05-10T20:25:48.166Z,14.09
2019-05-10T20:28:14.751Z,14.09
2019-05-10T20:30:41.441Z,14.11
2019-05-10T20:33:08.079Z,14.11
2019-05-10T20:35:34.722Z,14.14
2019-05-10T20:38:02.655Z,14.16
2019-05-10T20:40:29.531Z,14.19
2019-05-10T20:42:56.112Z,14.21
2019-05-10T20:45:22.790Z,14.22
2019-05-10T20:47:49.379Z,14.22
2019-05-10T20:50:16.063Z,14.22
2019-05-10T20:52:42.658Z,14.23
2019-05-10T20:55:09.242Z,14.22
2019-05-10T20:57:35.859Z,14.21
2019-05-10T21:00:02.445Z,14.21
2019-05-10T21:02:29.167Z,14.23
2019-05-10T21:04:57.361Z,14.24
2019-05-10T21:07:23.961Z,14.26
2019-05-10T21:09:50.539Z,14.29
2019-05-10T21:12:17.133Z,14.30
2019-05-10T21:14:43.717Z,14.30
2019-05-10T21:17:10.327Z,14.33
2019-05-10T21:19:36.915Z,14.32
2019-05-10T21:22:03.530Z,14.33
2019-05-10T21:24:32.204Z,14.33
2019-05-10T21:26:58.852Z,14.36
2019-05-10T21:29:25.437Z,14.39
2019-05-10T21:31:52.057Z,14.42
2019-05-10T21:34:18.653Z,14.45
2019-05-10T21:36:45.237Z,14.48
2019-05-10T21:39:11.816Z,14.49
2019-05-10T21:41:38.435Z,14.51
2019-05-10T21:44:05.011Z,14.53
2019-05-10T21:46:31.619Z,14.55
2019-05-10T21:48:58.200Z,14.56
2019-05-10T21:51:24.802Z,14.58
2019-05-10T21:53:51.389Z,14.60
2019-05-10T21:56:18.015Z,14.63
2019-05-10T21:58:44.587Z,14.64
2019-05-10T22:01:11.196Z,14.65
2019-05-10T22:03:37.769Z,14.68
2019-05-10T22:06:04.363Z,14.69
2019-05-10T22:08:30.935Z,14.70
2019-05-10T22:10:57.600Z,14.72
2019-05-10T22:13:24.294Z,14.73
2019-05-10T22:15:50.906Z,14.74
2019-05-10T22:18:17.515Z,14.76
2019-05-10T22:20:44.138Z,14.78
2019-05-10T22:23:10.770Z,14.79
2019-05-10T22:25:37.348Z,14.78
2019-05-10T22:28:03.959Z,14.79
2019-05-10T22:30:30.550Z,14.80
2019-05-10T22:32:57.167Z,14.80
2019-05-10T22:35:23.739Z,14.79
2019-05-10T22:37:50.349Z,14.76
2019-05-10T22:40:16.946Z,14.72
2019-05-10T22:42:43.663Z,14.70
2019-05-10T22:45:10.371Z,14.66
2019-05-10T22:47:36.977Z,14.63
2019-05-10T22:50:03.544Z,14.56
2019-05-10T22:52:30.197Z,14.51
2019-05-10T22:55:00.145Z,14.48
2019-05-10T22:57:25.138Z,14.44
2019-05-10T22:59:51.707Z,14.41
2019-05-10T23:02:18.313Z,14.38
2019-05-10T23:04:44.899Z,14.36
2019-05-10T23:07:11.506Z,14.32
2019-05-10T23:09:38.091Z,14.29
2019-05-10T23:12:04.694Z,14.26
2019-05-10T23:14:31.275Z,14.24
2019-05-10T23:16:57.892Z,14.23
2019-05-10T23:19:24.463Z,14.22
2019-05-10T23:21:51.079Z,14.20
2019-05-10T23:24:17.654Z,14.17
2019-05-10T23:26:44.263Z,14.14
2019-05-10T23:29:10.857Z,14.12
2019-05-10T23:31:37.467Z,14.11
2019-05-10T23:34:04.051Z,14.08
2019-05-10T23:36:30.664Z,14.07
2019-05-10T23:38:57.252Z,14.06
2019-05-10T23:41:23.869Z,14.03
2019-05-10T23:43:50.449Z,14.00
2019-05-10T23:46:17.027Z,13.98
2019-05-10T23:48:43.643Z,13.96
2019-05-10T23:51:10.216Z,13.96
2019-05-10T23:53:36.829Z,13.98
2019-05-10T23:56:03.419Z,13.96
2019-05-10T23:58:30.002Z,13.96
